createdAt,value
2022-11-08T00:00:27.019Z,11.00
2022-11-08T00:02:53.712Z,10.90
2022-11-08T00:05:38.980Z,10.90
2022-11-08T00:08:24.545Z,10.90
2022-11-08T00:11:09.810Z,11.00
2022-11-08T00:13:55.163Z,11.00
2022-11-08T00:16:21.972Z,10.90
2022-11-08T00:18:48.683Z,10.90
2022-11-08T00:21:15.392Z,11.00
2022-11-08T00:23:43.828Z,10.90
2022-11-08T00:26:10.494Z,10.80
2022-11-08T00:28:39.922Z,10.80
2022-11-08T00:31:07.417Z,10.70
2022-11-08T00:33:35.099Z,10.50
2022-11-08T00:36:02.629Z,10.60
2022-11-08T00:38:29.525Z,10.70
2022-11-08T00:40:56.214Z,11.00
2022-11-08T00:43:22.957Z,10.50
2022-11-08T00:45:49.606Z,10.30
2022-11-08T00:48:16.564Z,10.40
2022-11-08T00:50:43.470Z,10.40
2022-11-08T00:53:10.175Z,10.20
2022-11-08T00:55:36.835Z,10.00
2022-11-08T00:58:03.703Z,9.90
2022-11-08T01:00:30.502Z,9.90
2022-11-08T01:03:15.799Z,9.80
2022-11-08T01:05:42.557Z,9.70
2022-11-08T01:08:10.274Z,9.60
2022-11-08T01:10:37.364Z,9.50
2022-11-08T01:13:04.230Z,9.40
2022-11-08T01:15:38.799Z,9.50
2022-11-08T01:18:05.552Z,9.60
2022-11-08T01:20:32.330Z,9.60
2022-11-08T01:22:59.618Z,9.60
2022-11-08T01:25:26.254Z,9.60
2022-11-08T01:27:52.908Z,9.60
2022-11-08T01:30:19.653Z,9.60
2022-11-08T01:32:46.525Z,9.80
2022-11-08T01:35:13.174Z,10.00
2022-11-08T01:37:39.809Z,9.60
2022-11-08T01:40:07.368Z,9.70
2022-11-08T01:42:34.116Z,9.60
2022-11-08T01:45:03.211Z,9.60
2022-11-08T01:47:30.031Z,9.60
2022-11-08T01:50:18.105Z,9.60
2022-11-08T01:52:53.892Z,9.40
2022-11-08T01:55:27.265Z,9.40
2022-11-08T01:58:01.577Z,9.20
2022-11-08T02:00:28.284Z,8.80
2022-11-08T02:03:00.247Z,8.60
2022-11-08T02:05:29.524Z,8.30
2022-11-08T02:08:02.426Z,8.10
2022-11-08T02:10:36.692Z,7.90
2022-11-08T02:13:07.748Z,7.80
2022-11-08T02:15:36.380Z,7.70
2022-11-08T02:18:03.267Z,7.70
2022-11-08T02:20:30.632Z,7.90
2022-11-08T02:23:09.096Z,8.10
2022-11-08T02:25:35.826Z,8.10
2022-11-08T02:28:02.631Z,8.20
2022-11-08T02:30:37.049Z,7.90
2022-11-08T02:33:18.561Z,7.70
2022-11-08T02:35:49.254Z,7.50
2022-11-08T02:38:17.456Z,7.30
2022-11-08T02:40:53.109Z,7.20
2022-11-08T02:43:20.717Z,7.10
2022-11-08T02:45:47.508Z,7.10
2022-11-08T02:48:16.080Z,7.00
2022-11-08T02:50:43.066Z,6.90
2022-11-08T02:53:09.922Z,6.90
2022-11-08T02:55:36.805Z,6.80
2022-11-08T02:58:05.112Z,6.70
2022-11-08T03:00:32.562Z,6.80
2022-11-08T03:02:59.300Z,7.40
2022-11-08T03:05:27.247Z,7.50
2022-11-08T03:07:54.909Z,8.30
2022-11-08T03:10:22.582Z,8.60
2022-11-08T03:12:59.249Z,8.80
2022-11-08T03:15:26.759Z,9.00
2022-11-08T03:17:53.616Z,9.10
2022-11-08T03:20:20.300Z,9.10
2022-11-08T03:22:47.451Z,9.00
2022-11-08T03:25:14.340Z,8.90
2022-11-08T03:27:41.045Z,8.90
2022-11-08T03:30:08.099Z,8.90
2022-11-08T03:32:34.800Z,9.00
2022-11-08T03:35:01.640Z,8.90
2022-11-08T03:37:28.281Z,8.60
2022-11-08T03:39:55.547Z,8.60
2022-11-08T03:42:22.222Z,8.70
2022-11-08T03:44:48.863Z,8.70
2022-11-08T03:47:15.542Z,8.80
2022-11-08T03:49:42.217Z,8.90
2022-11-08T03:52:08.973Z,8.00
2022-11-08T03:54:35.597Z,7.40
2022-11-08T03:57:02.294Z,7.10
2022-11-08T03:59:28.997Z,7.00
2022-11-08T04:01:56.012Z,7.40
2022-11-08T04:04:22.766Z,8.00
2022-11-08T04:06:49.523Z,8.30
2022-11-08T04:09:20.390Z,8.70
2022-11-08T04:12:06.638Z,8.80
2022-11-08T04:14:51.761Z,9.10
2022-11-08T04:17:18.424Z,9.10
2022-11-08T04:20:03.750Z,9.30
2022-11-08T04:22:30.426Z,9.50
2022-11-08T04:24:57.047Z,9.50
2022-11-08T04:27:23.678Z,9.30
2022-11-08T04:29:50.446Z,9.30
2022-11-08T04:32:17.147Z,9.20
2022-11-08T04:34:43.826Z,9.50
2022-11-08T04:37:10.496Z,9.50
2022-11-08T04:39:43.192Z,9.50
2022-11-08T04:42:09.883Z,9.60
2022-11-08T04:44:36.558Z,9.80
2022-11-08T04:47:03.281Z,9.40
2022-11-08T04:49:29.992Z,9.40
2022-11-08T04:51:56.670Z,9.50
2022-11-08T04:54:23.313Z,9.70
2022-11-08T04:56:50.013Z,9.60
2022-11-08T04:59:16.663Z,9.10
2022-11-08T05:01:43.483Z,8.50
2022-11-08T05:04:10.254Z,8.20
2022-11-08T05:06:36.965Z,7.90
2022-11-08T05:09:04.000Z,7.70
2022-11-08T05:11:31.114Z,7.50
2022-11-08T05:13:58.025Z,7.70
2022-11-08T05:16:27.943Z,8.60
2022-11-08T05:18:55.096Z,8.70
2022-11-08T05:21:41.349Z,8.70
2022-11-08T05:24:10.980Z,8.10
2022-11-08T05:26:40.368Z,7.80
2022-11-08T05:29:07.047Z,7.50
2022-11-08T05:31:33.832Z,7.00
2022-11-08T05:34:00.921Z,6.70
2022-11-08T05:36:28.620Z,6.60
2022-11-08T05:38:55.894Z,6.70
2022-11-08T05:41:24.947Z,6.60
2022-11-08T05:43:53.903Z,6.60
2022-11-08T05:46:22.621Z,6.60
2022-11-08T05:48:49.931Z,6.60
2022-11-08T05:51:18.297Z,6.70
2022-11-08T05:53:46.915Z,6.60
2022-11-08T05:56:13.678Z,6.50
2022-11-08T05:58:40.375Z,6.40
2022-11-08T06:01:15.418Z,6.40
2022-11-08T06:03:42.491Z,6.30
2022-11-08T06:06:11.786Z,6.30
2022-11-08T06:08:39.583Z,6.60
2022-11-08T06:11:11.959Z,6.70
2022-11-08T06:13:39.425Z,7.10
2022-11-08T06:16:12.203Z,7.30
2022-11-08T06:18:39.562Z,8.50
2022-11-08T06:21:08.920Z,9.00
2022-11-08T06:23:36.020Z,9.30
2022-11-08T06:26:03.076Z,9.80
2022-11-08T06:28:30.073Z,10.00
2022-11-08T06:31:01.464Z,10.10
2022-11-08T06:33:28.822Z,10.00
2022-11-08T06:35:55.489Z,9.80
2022-11-08T06:38:22.515Z,9.70
2022-11-08T06:40:49.226Z,9.80
2022-11-08T06:43:19.530Z,9.70
2022-11-08T06:45:47.052Z,9.70
2022-11-08T06:48:13.864Z,10.10
2022-11-08T06:50:42.614Z,10.20
2022-11-08T06:53:12.375Z,10.10
2022-11-08T06:55:39.256Z,10.20
2022-11-08T06:58:05.965Z,10.20
2022-11-08T07:00:32.846Z,10.10
2022-11-08T07:03:01.954Z,10.30
2022-11-08T07:05:30.279Z,10.40
2022-11-08T07:07:58.831Z,10.50
2022-11-08T07:10:31.250Z,10.50
2022-11-08T07:13:02.406Z,10.50
2022-11-08T07:15:29.871Z,10.50
2022-11-08T07:18:01.901Z,10.50
2022-11-08T07:20:28.745Z,10.70
2022-11-08T07:22:56.777Z,10.60
2022-11-08T07:25:23.830Z,10.50
2022-11-08T07:27:50.572Z,10.60
2022-11-08T07:30:17.302Z,10.60
2022-11-08T07:32:43.986Z,11.40
2022-11-08T07:35:10.809Z,10.50
2022-11-08T07:37:37.636Z,10.40
2022-11-08T07:40:04.738Z,10.30
2022-11-08T07:42:50.011Z,10.10
2022-11-08T07:45:18.346Z,9.60
2022-11-08T07:47:45.043Z,9.20
2022-11-08T07:50:15.194Z,8.90
2022-11-08T07:52:49.849Z,9.20
2022-11-08T07:55:16.597Z,9.30
2022-11-08T07:57:43.250Z,9.40
2022-11-08T08:00:10.438Z,9.60
2022-11-08T08:02:37.109Z,9.70
2022-11-08T08:05:04.147Z,9.90
2022-11-08T08:07:31.167Z,9.60
2022-11-08T08:09:57.923Z,9.40
2022-11-08T08:12:24.579Z,9.20
2022-11-08T08:14:51.245Z,9.60
2022-11-08T08:17:17.894Z,11.20
2022-11-08T08:19:44.521Z,12.30
2022-11-08T08:22:11.147Z,13.10
2022-11-08T08:24:37.853Z,12.50
2022-11-08T08:27:04.530Z,13.00
2022-11-08T08:29:31.199Z,13.80
2022-11-08T08:31:57.818Z,13.60
2022-11-08T08:34:24.621Z,13.30
2022-11-08T08:36:51.281Z,13.60
2022-11-08T08:39:18.055Z,13.80
2022-11-08T08:41:44.704Z,13.40
2022-11-08T08:44:11.415Z,13.40
2022-11-08T08:46:38.061Z,13.60
2022-11-08T08:49:04.737Z,13.90
2022-11-08T08:51:31.405Z,13.30
2022-11-08T08:53:58.749Z,13.50
2022-11-08T08:56:25.351Z,13.30
2022-11-08T09:01:38.829Z,13.60
2022-11-08T09:04:05.780Z,14.10
2022-11-08T09:06:32.625Z,14.90
2022-11-08T09:08:59.332Z,14.80
2022-11-08T09:11:26.032Z,14.50
2022-11-08T09:13:52.714Z,14.30
2022-11-08T09:16:19.421Z,14.50
2022-11-08T09:18:46.165Z,13.90
2022-11-08T09:21:12.999Z,13.80
2022-11-08T09:23:42.248Z,14.20
2022-11-08T09:26:10.330Z,14.00
2022-11-08T09:28:37.883Z,14.20
2022-11-08T09:31:07.224Z,14.70
2022-11-08T09:33:34.805Z,14.30
2022-11-08T09:36:03.555Z,14.30
2022-11-08T09:38:30.828Z,14.40
2022-11-08T09:41:21.829Z,14.50
2022-11-08T09:44:31.175Z,15.00
2022-11-08T09:47:02.894Z,15.30
2022-11-08T09:49:35.926Z,15.60
2022-11-08T09:52:04.450Z,14.80
2022-11-08T09:54:45.785Z,14.80
2022-11-08T09:57:21.232Z,15.20
2022-11-08T09:59:54.724Z,15.10
2022-11-08T10:02:24.097Z,16.50
2022-11-08T10:05:00.733Z,15.40
2022-11-08T10:08:03.808Z,15.30
2022-11-08T10:10:58.003Z,15.70
2022-11-08T10:13:47.803Z,15.40
2022-11-08T10:16:17.172Z,15.30
2022-11-08T10:19:21.451Z,15.20
2022-11-08T10:22:12.283Z,16.50
2022-11-08T10:24:56.751Z,15.50
2022-11-08T10:27:36.871Z,16.00
2022-11-08T10:30:12.988Z,14.90
2022-11-08T10:32:40.371Z,14.80
2022-11-08T10:35:13.116Z,14.80
2022-11-08T10:37:42.197Z,15.00
2022-11-08T10:40:20.757Z,14.80
2022-11-08T10:42:53.256Z,15.00
2022-11-08T10:45:19.974Z,15.20
2022-11-08T10:47:47.371Z,15.20
2022-11-08T10:50:19.866Z,15.10
2022-11-08T10:53:01.423Z,14.80
2022-11-08T10:55:36.792Z,14.70
2022-11-08T10:58:24.203Z,14.90
2022-11-08T11:01:01.320Z,14.80
2022-11-08T11:03:30.488Z,14.80
2022-11-08T11:06:03.341Z,15.10
2022-11-08T11:08:30.328Z,14.80
2022-11-08T11:11:19.653Z,15.50
2022-11-08T11:14:06.922Z,15.40
2022-11-08T11:16:36.286Z,15.30
2022-11-08T11:19:05.632Z,15.90
2022-11-08T11:21:38.471Z,15.60
2022-11-08T11:24:20.731Z,15.30
2022-11-08T11:26:56.788Z,15.30
2022-11-08T11:29:37.736Z,15.30
2022-11-08T11:32:34.363Z,15.40
2022-11-08T11:35:07.413Z,15.40
2022-11-08T11:37:45.336Z,15.50
2022-11-08T11:40:18.080Z,15.60
2022-11-08T11:42:53.018Z,15.60
2022-11-08T11:45:50.340Z,16.00
2022-11-08T11:48:19.210Z,16.00
2022-11-08T11:50:50.638Z,16.00
2022-11-08T11:53:22.744Z,16.10
2022-11-08T11:56:07.958Z,16.20
2022-11-08T11:59:01.964Z,16.30
2022-11-08T12:01:43.685Z,16.50
2022-11-08T12:04:42.666Z,16.40
2022-11-08T12:07:29.459Z,16.30
2022-11-08T12:10:17.967Z,16.30
2022-11-08T12:13:18.512Z,16.30
2022-11-08T12:15:57.889Z,16.60
2022-11-08T12:18:49.191Z,16.30
2022-11-08T12:21:39.134Z,16.40
2022-11-08T12:24:48.047Z,16.40
2022-11-08T12:27:32.884Z,16.60
2022-11-08T12:30:05.590Z,16.50
2022-11-08T12:32:40.547Z,16.40
2022-11-08T12:35:07.160Z,16.20
2022-11-08T12:37:55.824Z,16.20
2022-11-08T12:40:40.075Z,16.30
2022-11-08T12:43:21.976Z,16.20
2022-11-08T12:46:06.718Z,16.10
2022-11-08T12:48:48.597Z,16.00
2022-11-08T12:51:37.430Z,16.10
2022-11-08T12:54:26.787Z,16.20
2022-11-08T12:56:56.231Z,16.10
2022-11-08T12:59:32.494Z,16.00
2022-11-08T13:02:02.310Z,16.00
2022-11-08T13:04:37.949Z,16.00
2022-11-08T13:07:29.264Z,16.20
2022-11-08T13:10:12.385Z,16.30
2022-11-08T13:12:54.482Z,16.50
2022-11-08T13:15:25.132Z,16.70
2022-11-08T13:18:07.005Z,16.70
2022-11-08T13:20:46.194Z,16.80
2022-11-08T13:23:28.878Z,17.00
2022-11-08T13:26:12.610Z,16.80
2022-11-08T13:28:46.374Z,16.40
2022-11-08T13:31:33.759Z,16.30
2022-11-08T13:34:09.789Z,16.40
2022-11-08T13:37:18.166Z,16.50
2022-11-08T13:40:03.269Z,16.70
2022-11-08T13:42:31.413Z,16.60
2022-11-08T13:45:11.315Z,16.80
2022-11-08T13:47:40.081Z,16.70
2022-11-08T13:50:28.632Z,16.90
2022-11-08T13:53:23.070Z,16.70
2022-11-08T13:56:09.834Z,16.70
2022-11-08T13:58:38.184Z,16.60
2022-11-08T14:01:18.436Z,16.60
2022-11-08T14:03:48.185Z,16.50
2022-11-08T14:06:23.879Z,16.40
2022-11-08T14:09:02.574Z,16.40
2022-11-08T14:11:45.272Z,16.40
2022-11-08T14:14:20.848Z,16.30
2022-11-08T14:17:18.896Z,16.20
2022-11-08T14:19:47.786Z,16.20
2022-11-08T14:22:30.108Z,16.50
2022-11-08T14:25:12.997Z,16.30
2022-11-08T14:27:41.244Z,16.50
2022-11-08T14:30:16.592Z,16.20
2022-11-08T14:32:44.385Z,16.20
2022-11-08T14:35:22.098Z,16.30
2022-11-08T14:37:49.247Z,16.10
2022-11-08T14:40:27.947Z,15.90
2022-11-08T14:42:55.944Z,15.90
2022-11-08T14:45:27.191Z,16.00
2022-11-08T14:48:03.483Z,15.80
2022-11-08T14:50:33.091Z,15.70
2022-11-08T14:53:27.333Z,15.70
2022-11-08T14:56:08.618Z,15.60
2022-11-08T14:58:35.316Z,15.50
2022-11-08T15:01:03.817Z,15.60
2022-11-08T15:03:32.788Z,15.50
2022-11-08T15:06:01.806Z,15.40
2022-11-08T15:08:48.391Z,15.40
2022-11-08T15:11:29.907Z,15.50
2022-11-08T15:14:04.191Z,15.40
2022-11-08T15:16:50.042Z,16.00
2022-11-08T15:19:35.764Z,15.50
2022-11-08T15:22:22.432Z,15.60
2022-11-08T15:25:19.902Z,15.50
2022-11-08T15:27:54.401Z,15.50
2022-11-08T15:30:22.582Z,15.50
2022-11-08T15:32:49.962Z,15.40
2022-11-08T15:35:30.213Z,15.70
2022-11-08T15:38:02.898Z,15.30
2022-11-08T15:40:32.378Z,15.30
2022-11-08T15:43:00.076Z,15.60
2022-11-08T15:45:32.276Z,15.50
2022-11-08T15:48:08.340Z,15.20
2022-11-08T15:50:35.193Z,15.50
2022-11-08T15:53:03.882Z,15.50
2022-11-08T15:55:38.447Z,15.20
2022-11-08T15:58:05.571Z,15.10
2022-11-08T16:00:36.776Z,15.60
2022-11-08T16:03:04.061Z,15.10
2022-11-08T16:05:32.647Z,15.00
2022-11-08T16:07:59.945Z,15.30
2022-11-08T16:10:43.399Z,14.90
2022-11-08T16:13:16.985Z,14.80
2022-11-08T16:15:45.488Z,15.10
2022-11-08T16:18:12.497Z,14.60
2022-11-08T16:20:39.406Z,14.60
2022-11-08T16:23:09.428Z,14.50
2022-11-08T16:25:46.193Z,14.50
2022-11-08T16:28:26.789Z,14.40
2022-11-08T16:30:53.603Z,14.40
2022-11-08T16:33:22.782Z,14.40
2022-11-08T16:35:50.352Z,14.40
2022-11-08T16:38:25.578Z,14.20
2022-11-08T16:40:52.351Z,14.10
2022-11-08T16:43:19.226Z,14.10
2022-11-08T16:46:15.974Z,14.20
2022-11-08T16:48:33.421Z,14.00
2022-11-08T16:51:02.743Z,14.10
2022-11-08T16:53:30.243Z,13.80
2022-11-08T16:55:57.240Z,13.80
2022-11-08T16:58:24.421Z,13.50
2022-11-08T17:00:51.735Z,13.50
2022-11-08T17:03:24.361Z,13.40
2022-11-08T17:05:53.911Z,13.60
2022-11-08T17:08:21.355Z,13.60
2022-11-08T17:10:48.333Z,13.80
2022-11-08T17:13:17.046Z,13.50
2022-11-08T17:15:44.692Z,13.60
2022-11-08T17:18:17.114Z,13.50
2022-11-08T17:20:44.383Z,13.40
2022-11-08T17:23:11.760Z,13.80
2022-11-08T17:25:40.525Z,13.60
2022-11-08T17:28:12.125Z,13.80
2022-11-08T17:30:45.412Z,14.50
2022-11-08T17:33:14.262Z,13.80
2022-11-08T17:35:44.103Z,14.20
2022-11-08T17:38:14.112Z,14.00
2022-11-08T17:40:42.368Z,14.10
2022-11-08T17:43:09.624Z,14.20
2022-11-08T17:45:36.532Z,13.90
2022-11-08T17:48:03.255Z,14.00
2022-11-08T17:50:30.051Z,14.00
2022-11-08T17:52:57.127Z,14.00
2022-11-08T17:55:23.997Z,14.40
2022-11-08T17:57:50.994Z,14.20
2022-11-08T18:00:17.984Z,14.20
2022-11-08T18:02:45.832Z,14.00
2022-11-08T18:05:12.721Z,14.40
2022-11-08T18:07:40.273Z,14.00
2022-11-08T18:10:08.040Z,13.90
2022-11-08T18:12:35.400Z,13.80
2022-11-08T18:15:02.642Z,14.00
2022-11-08T18:17:29.345Z,14.10
2022-11-08T18:19:56.091Z,14.00
2022-11-08T18:22:22.852Z,13.90
2022-11-08T18:24:50.202Z,13.80
2022-11-08T18:27:33.710Z,13.90
2022-11-08T18:30:00.659Z,14.00
2022-11-08T18:32:27.454Z,14.30
2022-11-08T18:34:54.218Z,14.20
2022-11-08T18:37:21.008Z,14.10
2022-11-08T18:39:47.931Z,14.10
2022-11-08T18:42:14.674Z,14.10
2022-11-08T18:44:41.432Z,14.60
2022-11-08T18:47:08.120Z,14.00
2022-11-08T18:49:35.233Z,14.30
2022-11-08T18:52:01.997Z,14.20
2022-11-08T18:54:38.468Z,14.50
2022-11-08T18:57:05.224Z,14.00
2022-11-08T18:59:32.091Z,14.40
2022-11-08T19:01:58.952Z,14.10
2022-11-08T19:04:25.746Z,14.00
2022-11-08T19:06:54.772Z,14.10
2022-11-08T19:09:22.255Z,14.20
2022-11-08T19:11:49.496Z,14.70
2022-11-08T19:14:16.537Z,14.30
2022-11-08T19:16:43.570Z,14.40
2022-11-08T19:19:10.275Z,14.60
2022-11-08T19:21:41.925Z,14.30
2022-11-08T19:24:10.971Z,14.70
2022-11-08T19:26:40.520Z,14.30
2022-11-08T19:29:07.992Z,14.50
2022-11-08T19:31:38.850Z,13.80
2022-11-08T19:34:06.756Z,14.10
2022-11-08T19:36:34.383Z,14.10
2022-11-08T19:39:01.177Z,14.20
2022-11-08T19:41:29.172Z,14.60
2022-11-08T19:43:56.162Z,14.60
2022-11-08T19:46:26.850Z,14.30
2022-11-08T19:48:53.848Z,14.10
2022-11-08T19:54:07.192Z,14.20
2022-11-08T19:57:04.043Z,14.20
2022-11-08T19:59:24.245Z,14.40
2022-11-08T20:01:51.091Z,14.30
2022-11-08T20:04:27.395Z,14.50
2022-11-08T20:06:54.311Z,14.30
2022-11-08T20:09:25.925Z,14.40
2022-11-08T20:11:55.425Z,13.60
2022-11-08T20:14:22.153Z,14.30
2022-11-08T20:16:53.222Z,14.60
2022-11-08T20:19:22.362Z,14.80
2022-11-08T20:21:55.587Z,15.00
2022-11-08T20:24:22.610Z,14.40
2022-11-08T20:26:49.611Z,14.10
2022-11-08T20:29:16.735Z,14.60
2022-11-08T20:31:43.562Z,14.70
2022-11-08T20:34:12.888Z,14.60
2022-11-08T20:36:41.642Z,14.30
2022-11-08T20:39:08.451Z,14.80
2022-11-08T20:41:37.534Z,14.10
2022-11-08T20:44:05.760Z,14.20
2022-11-08T20:46:33.229Z,14.00
2022-11-08T20:49:06.916Z,14.20
2022-11-08T20:51:34.634Z,13.80
2022-11-08T20:54:01.897Z,13.70
2022-11-08T20:56:29.420Z,13.80
2022-11-08T20:58:59.468Z,14.60
2022-11-08T21:01:29.228Z,13.60
2022-11-08T21:03:56.608Z,13.60
2022-11-08T21:06:25.965Z,13.80
2022-11-08T21:11:40.336Z,14.10
2022-11-08T21:14:07.251Z,13.50
2022-11-08T21:16:53.193Z,13.50
2022-11-08T21:19:23.983Z,13.20
2022-11-08T21:21:50.802Z,13.90
2022-11-08T21:24:17.575Z,13.90
2022-11-08T21:26:44.362Z,13.70
2022-11-08T21:29:11.154Z,13.60
2022-11-08T21:31:37.922Z,13.30
2022-11-08T21:34:04.669Z,13.40
2022-11-08T21:36:31.580Z,13.60
2022-11-08T21:38:58.236Z,13.60
2022-11-08T21:41:25.006Z,13.30
2022-11-08T21:43:51.708Z,13.30
2022-11-08T21:46:24.609Z,13.60
2022-11-08T21:48:59.502Z,13.40
2022-11-08T21:51:26.855Z,13.30
2022-11-08T21:53:55.944Z,13.70
2022-11-08T21:56:24.821Z,13.80
2022-11-08T21:58:52.076Z,13.40
2022-11-08T22:01:19.701Z,13.50
2022-11-08T22:03:47.123Z,13.60
2022-11-08T22:06:14.198Z,13.60
2022-11-08T22:08:40.942Z,13.50
2022-11-08T22:11:07.697Z,13.40
2022-11-08T22:13:34.419Z,13.50
2022-11-08T22:16:01.420Z,13.60
2022-11-08T22:18:43.432Z,13.50
2022-11-08T22:21:33.360Z,13.60
2022-11-08T22:24:00.066Z,13.60
2022-11-08T22:26:26.752Z,13.60
2022-11-08T22:28:53.449Z,13.60
2022-11-08T22:31:20.155Z,13.50
2022-11-08T22:33:46.912Z,13.40
2022-11-08T22:36:13.765Z,13.40
2022-11-08T22:38:40.663Z,13.50
2022-11-08T22:41:07.569Z,13.30
2022-11-08T22:43:36.281Z,13.90
2022-11-08T22:46:03.745Z,13.30
2022-11-08T22:48:30.440Z,13.20
2022-11-08T22:50:57.635Z,13.10
2022-11-08T22:53:24.477Z,13.00
2022-11-08T22:55:51.509Z,13.00
2022-11-08T22:58:18.367Z,12.90
2022-11-08T23:00:45.115Z,12.90
2022-11-08T23:03:11.898Z,12.80
2022-11-08T23:05:38.672Z,12.80
2022-11-08T23:08:05.644Z,12.80
2022-11-08T23:10:32.391Z,12.90
2022-11-08T23:13:17.967Z,13.00
2022-11-08T23:16:03.515Z,12.90
2022-11-08T23:18:30.224Z,12.80
2022-11-08T23:21:15.452Z,12.80
2022-11-08T23:24:01.331Z,12.80
2022-11-08T23:26:49.794Z,12.70
2022-11-08T23:29:35.642Z,12.70
2022-11-08T23:32:02.366Z,12.80
2022-11-08T23:34:29.343Z,12.70
2022-11-08T23:36:57.490Z,12.60
2022-11-08T23:39:24.256Z,12.90
2022-11-08T23:42:09.420Z,12.60
2022-11-08T23:44:36.184Z,12.60
2022-11-08T23:47:02.900Z,12.50
2022-11-08T23:49:30.173Z,12.40
2022-11-08T23:51:56.880Z,12.70
2022-11-08T23:54:23.560Z,12.50
2022-11-08T23:56:51.177Z,12.50
2022-11-08T23:59:17.872Z,12.50
